Axtel, Kentucky
Current Conditions -  °F | °C
As of 1:04 AM on Monday 24 Nov 2014 (Local Time) from KFTK Reporting Station
Overcast Overcast  
Wind Chill: 59°   Ceiling: 1300
Heat Index: 59°   Visibility: 10mi
Dew Point: 57°   Wind: 13mph
Humidity: 94%   Direction: 180°S
Pressure: 29.37"   Gusts: 23mph
Location:  37.7834°N, 86.4612°W
Report Text: KFTK 240704Z AUTO 18011G20KT 10SM BKN013 OVC018 15/14 A2937 RMK AO2
Loading
Personal Weather Stations






























Interactive Weather Map New forecast layout! Learn more

10-Day Weather Forecast

Advertisements
Track Severe Weather on mobile